Time;durP1;ratioP1;P1;durP2;ratioP2;P2;SDS_P1;SDS_P2;PMS_P1;PMS_P2;Temp;Humidity;BMP_temperature;BMP_pressure;BME280_temperature;BME280_humidity;BME280_pressure;Samples;Min_cycle;Max_cycle;Signal;HPM_P1;HPM_P2
2023/07/10 00:01:16;;;;;;;6.53;5.20;;;;;;;;;;5013173;28;20525;-65
2023/07/10 00:03:42;;;;;;;7.70;5.83;;;;;;;;;;5013469;28;20924;-65
2023/07/10 00:06:12;;;;;;;16.27;5.30;;;;;;;;;;5013738;28;20443;-65
2023/07/10 00:08:40;;;;;;;9.50;5.10;;;;;;;;;;5013329;28;20467;-65
2023/07/10 00:11:36;;;;;;;7.67;5.77;;;;;;;;;;5013380;28;20482;-65
2023/07/10 00:14:02;;;;;;;5.50;5.00;;;;;;;;;;5012932;28;20484;-65
2023/07/10 00:16:30;;;;;;;5.80;5.27;;;;;;;;;;5013255;28;20465;-65
2023/07/10 00:18:56;;;;;;;8.80;5.17;;;;;;;;;;5013404;28;20500;-65
2023/07/10 00:21:24;;;;;;;6.20;5.40;;;;;;;;;;5013622;28;20959;-65
2023/07/10 00:23:50;;;;;;;6.17;5.40;;;;;;;;;;5013491;28;20767;-65
2023/07/10 00:26:24;;;;;;;5.93;5.33;;;;;;;;;;5011970;28;20459;-65
2023/07/10 00:28:51;;;;;;;9.43;5.47;;;;;;;;;;5013256;28;20422;-65
2023/07/10 00:31:18;;;;;;;9.50;5.30;;;;;;;;;;5013055;28;20447;-65
2023/07/10 00:33:47;;;;;;;6.00;5.40;;;;;;;;;;5013171;28;20493;-65
2023/07/10 00:36:32;;;;;;;6.20;5.60;;;;;;;;;;5012901;28;20523;-65
2023/07/10 00:39:33;;;;;;;9.50;6.23;;;;;;;;;;5013041;28;20493;-65
2023/07/10 00:42:05;;;;;;;6.50;5.63;;;;;;;;;;5010591;28;20450;-65
2023/07/10 00:44:37;;;;;;;9.33;5.57;;;;;;;;;;5012763;28;20459;-65
2023/07/10 00:47:06;;;;;;;9.70;6.10;;;;;;;;;;5012882;28;20525;-65
2023/07/10 00:49:38;;;;;;;7.83;6.00;;;;;;;;;;5011452;28;20463;-65
2023/07/10 00:52:19;;;;;;;12.83;6.20;;;;;;;;;;5012682;28;20424;-65
2023/07/10 00:54:46;;;;;;;9.47;6.20;;;;;;;;;;5011489;28;20418;-65
2023/07/10 00:57:19;;;;;;;7.10;5.30;;;;;;;;;;5011491;28;20488;-65
2023/07/10 00:59:45;;;;;;;6.33;5.03;;;;;;;;;;5012561;28;20420;-65
2023/07/10 01:02:14;;;;;;;6.67;6.07;;;;;;;;;;5011417;28;20423;-65
2023/07/10 01:04:43;;;;;;;6.87;5.13;;;;;;;;;;5012580;28;20510;-65
2023/07/10 01:07:17;;;;;;;10.03;5.77;;;;;;;;;;5012879;28;20419;-65
2023/07/10 01:10:03;;;;;;;6.23;5.30;;;;;;;;;;5012205;28;20442;-65
2023/07/10 01:12:30;;;;;;;4.90;4.50;;;;;;;;;;5012257;28;20438;-65
2023/07/10 01:14:56;;;;;;;10.57;5.07;;;;;;;;;;5012666;28;20522;-65
2023/07/10 01:17:22;;;;;;;8.53;5.70;;;;;;;;;;5012488;28;20508;-65
2023/07/10 01:19:49;;;;;;;8.67;5.47;;;;;;;;;;5012631;28;20555;-65
2023/07/10 01:22:15;;;;;;;6.73;5.67;;;;;;;;;;5012382;28;20966;-65
2023/07/10 01:24:44;;;;;;;12.77;5.83;;;;;;;;;;5012495;28;20408;-65
2023/07/10 01:27:12;;;;;;;5.40;4.90;;;;;;;;;;5012647;28;20844;-65
2023/07/10 01:29:43;;;;;;;5.80;5.30;;;;;;;;;;5012700;28;20413;-65
2023/07/10 01:32:10;;;;;;;6.87;4.90;;;;;;;;;;5012712;28;20778;-65
2023/07/10 01:34:39;;;;;;;5.73;5.30;;;;;;;;;;5012248;28;20409;-65
2023/07/10 01:37:08;;;;;;;8.70;5.80;;;;;;;;;;5012294;28;20436;-65
2023/07/10 01:39:38;;;;;;;6.20;5.53;;;;;;;;;;5012227;28;20439;-65
2023/07/10 01:42:04;;;;;;;7.10;6.00;;;;;;;;;;5012370;28;20896;-65
2023/07/10 01:44:34;;;;;;;6.37;5.90;;;;;;;;;;5012457;28;20405;-65
2023/07/10 01:47:03;;;;;;;6.30;5.70;;;;;;;;;;5012166;28;20416;-65
2023/07/10 01:49:32;;;;;;;12.27;5.40;;;;;;;;;;5012058;28;20447;-65
2023/07/10 01:51:58;;;;;;;8.83;5.60;;;;;;;;;;5012108;28;20419;-65
2023/07/10 01:54:24;;;;;;;7.90;5.63;;;;;;;;;;5012104;28;20831;-65
2023/07/10 01:56:53;;;;;;;5.83;4.57;;;;;;;;;;5012136;28;20473;-65
2023/07/10 01:59:19;;;;;;;13.80;6.03;;;;;;;;;;5012087;28;20419;-65
2023/07/10 02:01:45;;;;;;;9.30;5.80;;;;;;;;;;5012101;28;20791;-65
2023/07/10 02:04:13;;;;;;;6.27;5.77;;;;;;;;;;5011953;28;20724;-65
2023/07/10 02:06:39;;;;;;;7.70;5.97;;;;;;;;;;5011972;28;20490;-65
2023/07/10 02:09:06;;;;;;;5.87;5.37;;;;;;;;;;5011940;28;20852;-65
2023/07/10 02:11:34;;;;;;;8.60;5.80;;;;;;;;;;5011904;28;20526;-65
2023/07/10 02:14:00;;;;;;;5.73;5.33;;;;;;;;;;5011891;28;20560;-65
2023/07/10 02:16:26;;;;;;;6.77;5.60;;;;;;;;;;5011814;28;20995;-65
2023/07/10 02:18:55;;;;;;;6.47;5.97;;;;;;;;;;5012291;28;20409;-65
2023/07/10 02:21:21;;;;;;;5.80;5.30;;;;;;;;;;5014341;28;20506;-65
2023/07/10 02:23:47;;;;;;;6.00;5.40;;;;;;;;;;5015431;28;20436;-65
2023/07/10 02:26:14;;;;;;;6.10;5.57;;;;;;;;;;5015607;28;20404;-65
2023/07/10 02:28:40;;;;;;;6.20;5.50;;;;;;;;;;5015377;28;20442;-65
2023/07/10 02:31:07;;;;;;;6.63;6.03;;;;;;;;;;5015472;28;20482;-65
2023/07/10 02:33:33;;;;;;;6.53;5.77;;;;;;;;;;5013963;28;20449;-65
2023/07/10 02:36:01;;;;;;;6.20;5.60;;;;;;;;;;5015213;28;20464;-65
2023/07/10 02:38:27;;;;;;;5.63;5.10;;;;;;;;;;5015257;28;20493;-65
2023/07/10 02:40:57;;;;;;;5.57;5.10;;;;;;;;;;5015426;28;20422;-65
2023/07/10 02:43:25;;;;;;;6.10;5.50;;;;;;;;;;5015243;28;20418;-65
2023/07/10 02:45:51;;;;;;;6.53;5.50;;;;;;;;;;5015122;28;20444;-65
2023/07/10 02:48:17;;;;;;;5.77;5.20;;;;;;;;;;5015097;28;20431;-65
2023/07/10 02:50:46;;;;;;;7.53;5.80;;;;;;;;;;5014900;28;20452;-66
2023/07/10 02:53:12;;;;;;;8.53;6.10;;;;;;;;;;5015075;28;20444;-65
2023/07/10 02:55:38;;;;;;;6.07;5.50;;;;;;;;;;5014790;28;20971;-65
2023/07/10 02:58:04;;;;;;;8.03;5.77;;;;;;;;;;5014956;28;20415;-65
2023/07/10 03:00:33;;;;;;;7.13;5.70;;;;;;;;;;5014734;28;20431;-65
2023/07/10 03:02:58;;;;;;;6.27;5.63;;;;;;;;;;5013533;28;20512;-65
2023/07/10 03:05:27;;;;;;;6.97;6.10;;;;;;;;;;5014822;28;20586;-65
2023/07/10 03:07:53;;;;;;;8.60;6.73;;;;;;;;;;5014728;28;20427;-65
2023/07/10 03:10:20;;;;;;;9.33;6.33;;;;;;;;;;5014650;28;20872;-65
2023/07/10 03:12:48;;;;;;;10.80;7.03;;;;;;;;;;5014725;28;20903;-65
2023/07/10 03:15:14;;;;;;;8.30;6.20;;;;;;;;;;5014388;28;20473;-65
2023/07/10 03:17:41;;;;;;;7.10;6.50;;;;;;;;;;5014317;28;20411;-65
2023/07/10 03:20:08;;;;;;;7.97;6.40;;;;;;;;;;5014535;28;20478;-65
2023/07/10 03:22:34;;;;;;;6.40;5.80;;;;;;;;;;5013020;28;20459;-65
2023/07/10 03:25:00;;;;;;;6.37;5.90;;;;;;;;;;5014277;28;20466;-65
2023/07/10 03:27:27;;;;;;;7.83;6.40;;;;;;;;;;5014060;28;20469;-59
2023/07/10 03:29:53;;;;;;;14.67;7.73;;;;;;;;;;5014704;28;20454;-58
2023/07/10 03:32:24;;;;;;;13.90;7.37;;;;;;;;;;5013714;28;20424;-59
2023/07/10 03:34:50;;;;;;;14.13;8.17;;;;;;;;;;5012822;28;20453;-59
2023/07/10 03:37:18;;;;;;;13.80;8.37;;;;;;;;;;5013096;28;20520;-58
2023/07/10 03:39:44;;;;;;;9.20;7.30;;;;;;;;;;5013101;28;20950;-59
2023/07/10 03:42:11;;;;;;;16.23;7.90;;;;;;;;;;5013184;28;20501;-58
2023/07/10 03:44:37;;;;;;;15.40;7.43;;;;;;;;;;5013589;28;20839;-58
2023/07/10 03:47:03;;;;;;;15.67;7.70;;;;;;;;;;5013573;28;20427;-59
2023/07/10 03:49:29;;;;;;;8.67;7.47;;;;;;;;;;5013884;28;20466;-59
2023/07/10 03:51:55;;;;;;;8.30;7.43;;;;;;;;;;5013907;28;20451;-59
2023/07/10 03:54:21;;;;;;;7.97;7.17;;;;;;;;;;5013930;28;20433;-59
2023/07/10 03:56:47;;;;;;;8.23;7.53;;;;;;;;;;5013961;28;20569;-59
2023/07/10 03:59:13;;;;;;;10.97;7.23;;;;;;;;;;5012405;28;20500;-58
2023/07/10 04:01:43;;;;;;;12.90;8.40;;;;;;;;;;5013392;28;20430;-59
2023/07/10 04:04:09;;;;;;;15.60;8.33;;;;;;;;;;5013682;28;20902;-59
2023/07/10 04:06:35;;;;;;;10.83;8.30;;;;;;;;;;5013531;28;20978;-59
2023/07/10 04:09:01;;;;;;;15.13;8.20;;;;;;;;;;5013532;28;20523;-59
2023/07/10 04:11:30;;;;;;;9.67;8.70;;;;;;;;;;5013642;28;20916;-59
2023/07/10 04:13:56;;;;;;;15.43;10.53;;;;;;;;;;5013924;28;20496;-58
2023/07/10 04:16:29;;;;;;;24.03;13.17;;;;;;;;;;5013761;28;20564;-58
2023/07/10 04:18:55;;;;;;;21.43;11.80;;;;;;;;;;5013530;28;20854;-59
2023/07/10 04:21:23;;;;;;;20.23;12.17;;;;;;;;;;5013380;28;20903;-59
2023/07/10 04:23:49;;;;;;;22.20;11.43;;;;;;;;;;5013386;28;20418;-59
2023/07/10 04:26:18;;;;;;;17.93;11.60;;;;;;;;;;5013273;28;20933;-59
2023/07/10 04:28:45;;;;;;;14.00;11.67;;;;;;;;;;5013548;28;20414;-59
2023/07/10 04:31:11;;;;;;;14.37;11.00;;;;;;;;;;5013722;28;20474;-59
2023/07/10 04:33:37;;;;;;;23.73;9.63;;;;;;;;;;5014273;28;20469;-59
2023/07/10 04:36:03;;;;;;;17.07;11.00;;;;;;;;;;5013092;28;20489;-59
2023/07/10 04:38:29;;;;;;;16.20;11.07;;;;;;;;;;5013101;28;20421;-59
2023/07/10 04:41:00;;;;;;;21.20;10.40;;;;;;;;;;5013301;28;20435;-59
2023/07/10 04:43:27;;;;;;;17.40;9.97;;;;;;;;;;5012725;28;20404;-58
2023/07/10 04:45:56;;;;;;;16.57;10.00;;;;;;;;;;5011849;28;20786;-59
2023/07/10 04:48:25;;;;;;;13.03;10.23;;;;;;;;;;5013312;28;20903;-59
2023/07/10 04:50:51;;;;;;;16.73;10.68;;;;;;;;;;5011974;28;20497;-59
2023/07/10 04:53:18;;;;;;;14.00;10.70;;;;;;;;;;5012759;28;20220;-59
2023/07/10 04:55:44;;;;;;;50.07;38.93;;;;;;;;;;5012832;28;20954;-59
2023/07/10 04:58:11;;;;;;;14.65;9.68;;;;;;;;;;5010149;28;20418;-59
2023/07/10 05:00:40;;;;;;;13.60;10.33;;;;;;;;;;5012614;28;20195;-59
2023/07/10 05:03:07;;;;;;;18.10;10.17;;;;;;;;;;5012677;28;20428;-59
2023/07/10 05:05:35;;;;;;;17.97;10.90;;;;;;;;;;5011428;28;20423;-58
2023/07/10 05:08:02;;;;;;;13.73;10.70;;;;;;;;;;5012576;28;20413;-59
2023/07/10 05:10:28;;;;;;;14.37;9.90;;;;;;;;;;5012786;28;20855;-59
2023/07/10 05:12:56;;;;;;;12.03;10.27;;;;;;;;;;5012538;28;20422;-59
2023/07/10 05:15:25;;;;;;;15.23;9.70;;;;;;;;;;5012517;28;20459;-59
2023/07/10 05:17:53;;;;;;;19.07;11.00;;;;;;;;;;5012607;28;20474;-59
2023/07/10 05:20:19;;;;;;;12.97;11.60;;;;;;;;;;5012472;28;20435;-59
2023/07/10 05:22:45;;;;;;;19.88;10.80;;;;;;;;;;5012221;28;20407;-59
2023/07/10 05:25:11;;;;;;;13.07;10.65;;;;;;;;;;5011652;28;20415;-57
2023/07/10 05:27:37;;;;;;;13.53;10.80;;;;;;;;;;5011788;28;20200;-58
2023/07/10 05:30:03;;;;;;;18.40;12.00;;;;;;;;;;5012382;28;20989;-58
2023/07/10 05:32:29;;;;;;;17.03;10.23;;;;;;;;;;5012276;28;20455;-58
2023/07/10 05:34:55;;;;;;;15.27;11.77;;;;;;;;;;5011627;28;20492;-58
2023/07/10 05:37:21;;;;;;;14.30;10.60;;;;;;;;;;5011115;28;20835;-58
2023/07/10 05:39:47;;;;;;;12.83;10.20;;;;;;;;;;5012248;28;20401;-58
2023/07/10 05:42:13;;;;;;;18.77;11.60;;;;;;;;;;5012191;28;20438;-58
2023/07/10 05:44:39;;;;;;;13.57;10.70;;;;;;;;;;5012140;28;20422;-58
2023/07/10 05:47:07;;;;;;;13.60;12.23;;;;;;;;;;5012008;28;20523;-58
2023/07/10 05:49:33;;;;;;;18.50;13.23;;;;;;;;;;5012218;28;20793;-58
2023/07/10 05:51:59;;;;;;;17.23;12.10;;;;;;;;;;5011023;28;20996;-58
2023/07/10 05:54:28;;;;;;;14.27;12.67;;;;;;;;;;5011380;28;21008;-58
2023/07/10 05:56:54;;;;;;;25.07;12.70;;;;;;;;;;5014398;28;21072;-58
2023/07/10 05:59:20;;;;;;;15.40;12.70;;;;;;;;;;5015140;28;20472;-58
2023/07/10 06:01:46;;;;;;;13.70;11.33;;;;;;;;;;5014634;28;20478;-58
2023/07/10 06:04:12;;;;;;;16.37;12.10;;;;;;;;;;5015470;28;20466;-58
2023/07/10 06:06:39;;;;;;;23.03;12.87;;;;;;;;;;5015481;28;20417;-58
2023/07/10 06:09:05;;;;;;;26.20;12.27;;;;;;;;;;5015717;28;20441;-58
2023/07/10 06:11:34;;;;;;;17.17;12.60;;;;;;;;;;5015513;28;20864;-58
2023/07/10 06:14:00;;;;;;;15.47;12.40;;;;;;;;;;5015669;28;20793;-59
2023/07/10 06:16:26;;;;;;;17.63;12.47;;;;;;;;;;5015581;28;20470;-59
2023/07/10 06:18:54;;;;;;;15.33;12.43;;;;;;;;;;5015292;28;20783;-59
2023/07/10 06:21:20;;;;;;;14.27;12.77;;;;;;;;;;5014417;28;20449;-58
2023/07/10 06:23:49;;;;;;;21.23;12.10;;;;;;;;;;5015332;28;20424;-59
2023/07/10 06:26:17;;;;;;;19.03;12.40;;;;;;;;;;5015660;28;21009;-59
2023/07/10 06:28:43;;;;;;;14.07;11.30;;;;;;;;;;5015328;28;20394;-59
2023/07/10 06:31:12;;;;;;;14.87;11.87;;;;;;;;;;5015060;28;20414;-59
2023/07/10 06:33:39;;;;;;;16.37;13.10;;;;;;;;;;5015225;28;20431;-59
2023/07/10 06:36:09;;;;;;;27.40;11.53;;;;;;;;;;5015143;28;20472;-59
2023/07/10 06:38:35;;;;;;;14.20;11.60;;;;;;;;;;5014581;28;20436;-59
2023/07/10 06:41:05;;;;;;;18.27;11.90;;;;;;;;;;5013489;28;20441;-59
2023/07/10 06:43:34;;;;;;;17.83;10.80;;;;;;;;;;5015420;28;20800;-59
2023/07/10 06:46:00;;;;;;;12.17;10.13;;;;;;;;;;5014528;28;20412;-59
2023/07/10 06:48:26;;;;;;;23.60;10.40;;;;;;;;;;5014421;28;20782;-58
2023/07/10 06:50:53;;;;;;;15.57;9.03;;;;;;;;;;5014467;28;20424;-59
2023/07/10 06:53:19;;;;;;;12.17;9.60;;;;;;;;;;5014605;28;20464;-59
2023/07/10 06:55:51;;;;;;;13.00;9.77;;;;;;;;;;5014653;28;20551;-59
2023/07/10 06:58:17;;;;;;;11.20;10.00;;;;;;;;;;5015099;28;20428;-58
2023/07/10 07:00:43;;;;;;;12.27;9.27;;;;;;;;;;5013147;28;21043;-58
2023/07/10 07:03:11;;;;;;;10.90;7.50;;;;;;;;;;5014364;28;20421;-58
2023/07/10 07:05:40;;;;;;;12.83;8.70;;;;;;;;;;5012138;28;20761;-58
2023/07/10 07:08:06;;;;;;;11.93;8.73;;;;;;;;;;5014429;28;20499;-58
2023/07/10 07:10:32;;;;;;;10.20;7.17;;;;;;;;;;5014682;28;20463;-59
2023/07/10 07:12:58;;;;;;;10.50;7.03;;;;;;;;;;5014387;28;20761;-59
2023/07/10 07:15:27;;;;;;;9.57;8.03;;;;;;;;;;5014288;28;20488;-59
2023/07/10 07:17:53;;;;;;;8.13;7.30;;;;;;;;;;5014178;28;20932;-59
2023/07/10 07:20:19;;;;;;;8.80;7.90;;;;;;;;;;5013909;28;20441;-59
2023/07/10 07:22:45;;;;;;;11.07;8.03;;;;;;;;;;5014049;28;20498;-59
2023/07/10 07:25:11;;;;;;;8.40;7.50;;;;;;;;;;5014080;28;20417;-59
2023/07/10 07:27:37;;;;;;;9.10;7.30;;;;;;;;;;5014308;28;20995;-59
2023/07/10 07:30:06;;;;;;;10.80;7.97;;;;;;;;;;5013985;28;20422;-59
2023/07/10 07:32:32;;;;;;;8.20;6.53;;;;;;;;;;5014359;28;20469;-59
2023/07/10 07:35:01;;;;;;;8.07;7.37;;;;;;;;;;5014065;28;20922;-59
2023/07/10 07:37:27;;;;;;;6.97;6.57;;;;;;;;;;5013980;28;20405;-59
2023/07/10 07:39:58;;;;;;;9.53;6.30;;;;;;;;;;5012748;28;20439;-59
2023/07/10 07:42:27;;;;;;;8.37;7.00;;;;;;;;;;5013929;28;20500;-59
2023/07/10 07:44:57;;;;;;;16.40;12.40;;;;;;;;;;5013738;28;20521;-59
2023/07/10 07:47:23;;;;;;;17.03;10.17;;;;;;;;;;5013655;28;20879;-59
2023/07/10 07:49:51;;;;;;;8.83;8.03;;;;;;;;;;5013863;28;20494;-59
2023/07/10 07:52:17;;;;;;;11.00;8.83;;;;;;;;;;5014042;28;20415;-59
2023/07/10 07:54:43;;;;;;;9.93;6.83;;;;;;;;;;5013875;28;20412;-59
2023/07/10 07:57:12;;;;;;;6.10;5.57;;;;;;;;;;5012761;28;20992;-59
2023/07/10 07:59:38;;;;;;;5.93;5.40;;;;;;;;;;5014096;28;21047;-59
2023/07/10 08:02:04;;;;;;;6.80;5.00;;;;;;;;;;5014334;28;20453;-59
2023/07/10 08:04:30;;;;;;;4.37;4.17;;;;;;;;;;5015086;28;20510;-59
2023/07/10 08:06:57;;;;;;;11.10;4.50;;;;;;;;;;5014218;28;20526;-59
2023/07/10 08:09:23;;;;;;;4.30;4.00;;;;;;;;;;5013360;28;20466;-59
2023/07/10 08:11:49;;;;;;;4.67;4.30;;;;;;;;;;5013464;28;20412;-59
2023/07/10 08:14:15;;;;;;;7.67;4.07;;;;;;;;;;5013326;28;20423;-59
2023/07/10 08:16:41;;;;;;;3.47;3.20;;;;;;;;;;5013330;28;20958;-59
2023/07/10 08:19:07;;;;;;;5.77;4.07;;;;;;;;;;5013335;28;20409;-59
2023/07/10 08:21:33;;;;;;;4.77;4.03;;;;;;;;;;5013361;28;20417;-59
2023/07/10 08:24:01;;;;;;;4.33;4.00;;;;;;;;;;5013116;28;20435;-59
2023/07/10 08:26:27;;;;;;;5.20;3.73;;;;;;;;;;5013258;28;20426;-59
2023/07/10 08:28:53;;;;;;;4.30;4.00;;;;;;;;;;5013617;28;20483;-59
2023/07/10 08:31:19;;;;;;;4.40;4.10;;;;;;;;;;5013671;28;20460;-59
2023/07/10 08:33:45;;;;;;;4.50;4.20;;;;;;;;;;5013445;28;20443;-59
2023/07/10 08:36:10;;;;;;;4.23;3.83;;;;;;;;;;5013311;28;20499;-59
2023/07/10 08:38:37;;;;;;;10.13;4.27;;;;;;;;;;5013489;28;20833;-59
2023/07/10 08:41:16;;;;;;;6.30;3.97;;;;;;;;;;5013344;28;20421;-59
2023/07/10 08:43:42;;;;;;;3.90;3.70;;;;;;;;;;5011986;28;20522;-59
2023/07/10 08:46:12;;;;;;;4.40;4.07;;;;;;;;;;5011710;28;20456;-59
2023/07/10 08:48:50;;;;;;;4.20;3.90;;;;;;;;;;5013047;28;20472;-59
2023/07/10 08:51:19;;;;;;;4.00;3.80;;;;;;;;;;5013031;28;20787;-58
2023/07/10 08:53:55;;;;;;;5.47;3.93;;;;;;;;;;5013103;28;20441;-59
2023/07/10 08:56:28;;;;;;;3.87;3.67;;;;;;;;;;5012973;28;20557;-59
2023/07/10 08:58:59;;;;;;;4.60;4.30;;;;;;;;;;5013000;28;20490;-59
2023/07/10 09:01:37;;;;;;;4.20;3.70;;;;;;;;;;5012883;28;20435;-59
2023/07/10 09:04:04;;;;;;;4.37;3.97;;;;;;;;;;5012956;28;20506;-59
2023/07/10 09:06:35;;;;;;;3.70;3.50;;;;;;;;;;5013066;28;20892;-59
2023/07/10 09:09:06;;;;;;;4.97;4.50;;;;;;;;;;5012868;28;20441;-59
2023/07/10 09:11:32;;;;;;;4.90;4.40;;;;;;;;;;5013108;28;20409;-59
2023/07/10 09:14:21;;;;;;;4.70;4.40;;;;;;;;;;5013113;28;20868;-59
2023/07/10 09:16:48;;;;;;;4.33;4.00;;;;;;;;;;5012091;28;20488;-59
2023/07/10 09:19:18;;;;;;;4.40;4.20;;;;;;;;;;5012868;28;20444;-59
2023/07/10 09:21:45;;;;;;;4.80;4.33;;;;;;;;;;5012714;28;20915;-59
2023/07/10 09:24:18;;;;;;;4.53;4.20;;;;;;;;;;5012760;28;20627;-59
2023/07/10 09:26:43;;;;;;;5.03;4.73;;;;;;;;;;5011583;28;20909;-58
2023/07/10 09:29:14;;;;;;;4.20;3.90;;;;;;;;;;5012223;28;20440;-59
2023/07/10 09:31:49;;;;;;;5.03;4.50;;;;;;;;;;5012817;28;20404;-59
2023/07/10 09:34:17;;;;;;;4.80;4.40;;;;;;;;;;5012398;28;20818;-59
2023/07/10 09:36:49;;;;;;;5.10;4.70;;;;;;;;;;5012250;28;20499;-59
2023/07/10 09:39:16;;;;;;;4.70;4.50;;;;;;;;;;5012863;28;20556;-59
2023/07/10 09:41:45;;;;;;;8.60;4.80;;;;;;;;;;5012509;28;20919;-59
2023/07/10 09:44:18;;;;;;;5.73;5.10;;;;;;;;;;5012397;28;20964;-59
2023/07/10 09:46:47;;;;;;;5.37;4.87;;;;;;;;;;5012477;28;20421;-59
2023/07/10 09:49:23;;;;;;;5.50;5.00;;;;;;;;;;5012345;28;20417;-59
2023/07/10 09:51:56;;;;;;;6.63;5.40;;;;;;;;;;5012677;28;20397;-59
2023/07/10 09:54:22;;;;;;;7.33;4.87;;;;;;;;;;5012292;28;20451;-59
2023/07/10 09:56:51;;;;;;;8.07;5.23;;;;;;;;;;5011075;28;21001;-59
2023/07/10 09:59:29;;;;;;;5.40;4.90;;;;;;;;;;5012512;28;20429;-59
2023/07/10 10:01:55;;;;;;;9.33;5.80;;;;;;;;;;5012321;28;20571;-59
2023/07/10 10:04:25;;;;;;;8.47;7.63;;;;;;;;;;5012523;28;20471;-59
2023/07/10 10:07:01;;;;;;;6.87;5.37;;;;;;;;;;5012171;28;20526;-59
2023/07/10 10:09:29;;;;;;;5.10;4.80;;;;;;;;;;5012238;28;20919;-59
2023/07/10 10:11:58;;;;;;;5.40;4.70;;;;;;;;;;5012435;28;20432;-59
2023/07/10 10:14:34;;;;;;;6.30;5.70;;;;;;;;;;5012387;28;20436;-59
2023/07/10 10:17:07;;;;;;;9.20;5.30;;;;;;;;;;5012103;28;20472;-59
2023/07/10 10:19:36;;;;;;;9.30;6.07;;;;;;;;;;5012281;28;20800;-59
2023/07/10 10:22:08;;;;;;;4.93;4.63;;;;;;;;;;5012194;28;20432;-59
2023/07/10 10:24:37;;;;;;;6.30;4.73;;;;;;;;;;5012041;28;20539;-59
2023/07/10 10:27:22;;;;;;;7.13;6.00;;;;;;;;;;5010940;28;20429;-59
2023/07/10 10:29:54;;;;;;;6.03;5.17;;;;;;;;;;5012061;28;20506;-59
2023/07/10 10:32:41;;;;;;;6.00;5.60;;;;;;;;;;5010952;28;20424;-59
2023/07/10 10:35:27;;;;;;;5.60;5.30;;;;;;;;;;5011883;28;20527;-59
2023/07/10 10:37:53;;;;;;;6.20;5.70;;;;;;;;;;5012309;28;20504;-59
2023/07/10 10:40:30;;;;;;;5.40;5.10;;;;;;;;;;5012621;28;20863;-59
2023/07/10 10:43:02;;;;;;;6.10;5.60;;;;;;;;;;5015485;28;20416;-59
2023/07/10 10:45:34;;;;;;;6.73;6.10;;;;;;;;;;5014413;28;20440;-59
2023/07/10 10:48:04;;;;;;;5.93;5.37;;;;;;;;;;5015548;28;20429;-59
2023/07/10 10:50:30;;;;;;;7.37;5.10;;;;;;;;;;5015198;28;20424;-59
2023/07/10 10:52:56;;;;;;;5.63;5.00;;;;;;;;;;5015397;28;20436;-59
2023/07/10 10:55:29;;;;;;;5.53;5.23;;;;;;;;;;5015036;28;20809;-59
2023/07/10 10:58:06;;;;;;;5.97;4.80;;;;;;;;;;5015114;28;20178;-59
2023/07/10 11:00:47;;;;;;;6.20;4.37;;;;;;;;;;5015145;28;20808;-59
2023/07/10 11:03:13;;;;;;;5.10;4.57;;;;;;;;;;5014720;28;20443;-59
2023/07/10 11:05:53;;;;;;;7.67;5.47;;;;;;;;;;5014904;28;20420;-59
2023/07/10 11:08:22;;;;;;;5.90;5.30;;;;;;;;;;5014933;28;20412;-59
2023/07/10 11:10:50;;;;;;;4.60;4.40;;;;;;;;;;5014924;28;20515;-59
2023/07/10 11:13:22;;;;;;;5.53;5.03;;;;;;;;;;5014872;28;20777;-59
2023/07/10 11:15:48;;;;;;;5.90;5.40;;;;;;;;;;5014979;28;20472;-59
2023/07/10 11:18:15;;;;;;;5.73;5.30;;;;;;;;;;5014972;28;20421;-59
2023/07/10 11:20:41;;;;;;;5.13;4.63;;;;;;;;;;5014759;28;20433;-59
2023/07/10 11:23:27;;;;;;;4.90;4.60;;;;;;;;;;5014690;28;20417;-59
2023/07/10 11:26:03;;;;;;;5.27;4.97;;;;;;;;;;5014832;28;20424;-60
2023/07/10 11:28:34;;;;;;;5.67;4.87;;;;;;;;;;5015048;28;20892;-59
2023/07/10 11:31:17;;;;;;;4.93;4.63;;;;;;;;;;5014342;28;20479;-62
2023/07/10 11:33:44;;;;;;;7.63;4.30;;;;;;;;;;5014441;28;20425;-61
2023/07/10 11:36:30;;;;;;;5.53;5.00;;;;;;;;;;5013056;28;20542;-61
2023/07/10 11:39:05;;;;;;;7.93;4.00;;;;;;;;;;5012473;28;20475;-61
2023/07/10 11:41:37;;;;;;;4.50;4.20;;;;;;;;;;5014482;28;20432;-61
2023/07/10 11:44:20;;;;;;;5.77;4.07;;;;;;;;;;5014748;28;20413;-61
2023/07/10 11:47:01;;;;;;;4.90;4.50;;;;;;;;;;5014438;28;20512;-61
2023/07/10 11:49:27;;;;;;;6.73;4.83;;;;;;;;;;5014442;28;20427;-61
2023/07/10 11:52:10;;;;;;;5.23;4.70;;;;;;;;;;5013972;28;20500;-61
2023/07/10 11:54:42;;;;;;;4.57;4.33;;;;;;;;;;5014324;28;20178;-61
2023/07/10 11:57:08;;;;;;;4.57;4.37;;;;;;;;;;5014154;28;20468;-61
2023/07/10 11:59:57;;;;;;;4.63;4.30;;;;;;;;;;5013826;28;20792;-61
2023/07/10 12:02:33;;;;;;;4.90;4.60;;;;;;;;;;5013686;28;20455;-61
2023/07/10 12:05:02;;;;;;;5.43;5.00;;;;;;;;;;5013990;28;20411;-61
2023/07/10 12:07:28;;;;;;;4.93;4.63;;;;;;;;;;5013853;28;20467;-61
2023/07/10 12:09:57;;;;;;;4.63;4.30;;;;;;;;;;5012638;28;20428;-60
2023/07/10 12:12:23;;;;;;;7.00;4.70;;;;;;;;;;5014058;28;20420;-60
2023/07/10 12:14:49;;;;;;;5.03;4.83;;;;;;;;;;5013528;28;20987;-61
2023/07/10 12:17:16;;;;;;;5.10;4.87;;;;;;;;;;5013749;28;20551;-60
2023/07/10 12:19:42;;;;;;;5.83;4.67;;;;;;;;;;5013729;28;20455;-60
2023/07/10 12:22:22;;;;;;;4.87;4.57;;;;;;;;;;5012533;28;20416;-60
2023/07/10 12:24:51;;;;;;;4.37;3.97;;;;;;;;;;5012765;28;20467;-61
2023/07/10 12:27:18;;;;;;;5.10;4.73;;;;;;;;;;5013997;28;20417;-61
2023/07/10 12:29:51;;;;;;;4.80;4.60;;;;;;;;;;5013587;28;20421;-61
2023/07/10 12:32:17;;;;;;;7.87;4.47;;;;;;;;;;5013508;28;20425;-61
2023/07/10 12:34:46;;;;;;;5.77;4.90;;;;;;;;;;5012339;28;20417;-61
2023/07/10 12:37:14;;;;;;;12.63;4.93;;;;;;;;;;5013342;28;20472;-61
2023/07/10 12:39:40;;;;;;;4.37;4.03;;;;;;;;;;5013428;28;20417;-61
2023/07/10 12:42:23;;;;;;;4.73;3.80;;;;;;;;;;5013270;28;20417;-61
2023/07/10 12:44:49;;;;;;;4.50;4.17;;;;;;;;;;5013383;28;20435;-61
2023/07/10 12:47:15;;;;;;;5.73;4.77;;;;;;;;;;5013676;28;20896;-61
2023/07/10 12:49:48;;;;;;;13.20;4.33;;;;;;;;;;5013294;28;20270;-61
2023/07/10 12:52:14;;;;;;;4.67;4.47;;;;;;;;;;5012114;28;20405;-61
2023/07/10 12:54:42;;;;;;;9.90;4.43;;;;;;;;;;5013200;28;20430;-61
2023/07/10 12:57:30;;;;;;;5.00;4.60;;;;;;;;;;5013127;28;20313;-62
2023/07/10 13:00:00;;;;;;;4.90;4.70;;;;;;;;;;5013069;28;20504;-61
2023/07/10 13:02:30;;;;;;;4.33;4.03;;;;;;;;;;5013144;28;20519;-61
2023/07/10 13:04:58;;;;;;;4.23;4.13;;;;;;;;;;5012177;28;20425;-61
2023/07/10 13:07:31;;;;;;;5.00;4.03;;;;;;;;;;5012634;28;20409;-61
2023/07/10 13:09:59;;;;;;;4.63;4.33;;;;;;;;;;5012909;28;20479;-61
2023/07/10 13:12:38;;;;;;;7.83;4.30;;;;;;;;;;5012619;28;20413;-61
2023/07/10 13:15:05;;;;;;;4.50;4.20;;;;;;;;;;5012869;28;20908;-61
2023/07/10 13:17:35;;;;;;;4.90;4.50;;;;;;;;;;5013145;28;20802;-61
2023/07/10 13:20:03;;;;;;;4.60;4.33;;;;;;;;;;5012837;28;20501;-61
2023/07/10 13:22:31;;;;;;;4.10;3.90;;;;;;;;;;5012662;28;20896;-61
2023/07/10 13:24:57;;;;;;;5.17;4.70;;;;;;;;;;5012689;28;20447;-61
2023/07/10 13:27:24;;;;;;;4.90;4.20;;;;;;;;;;5012659;28;20472;-61
2023/07/10 13:29:50;;;;;;;4.73;3.73;;;;;;;;;;5012800;28;20178;-61
2023/07/10 13:32:21;;;;;;;4.47;4.17;;;;;;;;;;5012288;28;20550;-61
2023/07/10 13:34:47;;;;;;;4.93;4.63;;;;;;;;;;5014274;28;20416;-62
2023/07/10 13:37:17;;;;;;;4.07;3.90;;;;;;;;;;5013053;28;20484;-61
2023/07/10 13:39:43;;;;;;;4.97;4.57;;;;;;;;;;5012720;28;20194;-61
2023/07/10 13:42:12;;;;;;;6.43;4.10;;;;;;;;;;5012558;28;20808;-61
2023/07/10 13:44:39;;;;;;;4.83;4.53;;;;;;;;;;5012625;28;20409;-61
2023/07/10 13:47:18;;;;;;;4.93;4.63;;;;;;;;;;5012297;28;20433;-61
2023/07/10 13:49:45;;;;;;;5.27;4.60;;;;;;;;;;5012587;28;20417;-61
2023/07/10 13:52:16;;;;;;;5.47;4.70;;;;;;;;;;5012498;28;20494;-61
2023/07/10 13:54:42;;;;;;;5.13;4.57;;;;;;;;;;5012652;28;20419;-61
2023/07/10 13:57:13;;;;;;;5.50;4.60;;;;;;;;;;5012212;28;20491;-61
2023/07/10 13:59:39;;;;;;;5.53;4.93;;;;;;;;;;5011384;28;20567;-61
2023/07/10 14:02:21;;;;;;;4.80;4.60;;;;;;;;;;5011023;28;20537;-61
2023/07/10 14:04:48;;;;;;;5.07;4.87;;;;;;;;;;5012623;28;20189;-61
2023/07/10 14:07:15;;;;;;;7.60;4.40;;;;;;;;;;5012404;28;20420;-61
2023/07/10 14:09:41;;;;;;;4.93;4.60;;;;;;;;;;5012158;28;20560;-61
2023/07/10 14:12:15;;;;;;;5.57;4.60;;;;;;;;;;5012405;28;20871;-61
2023/07/10 14:14:41;;;;;;;14.70;5.17;;;;;;;;;;5012543;28;20181;-61
2023/07/10 14:17:13;;;;;;;5.07;4.77;;;;;;;;;;5015705;28;20472;-61
2023/07/10 14:19:41;;;;;;;7.10;4.60;;;;;;;;;;5016180;28;20400;-61
2023/07/10 14:22:10;;;;;;;4.53;4.23;;;;;;;;;;5015824;28;20523;-61
2023/07/10 14:24:37;;;;;;;4.67;4.37;;;;;;;;;;5015680;28;20495;-61
2023/07/10 14:27:11;;;;;;;4.57;3.93;;;;;;;;;;5015923;28;20475;-61
2023/07/10 14:29:39;;;;;;;5.90;4.30;;;;;;;;;;5014789;28;20459;-61
2023/07/10 14:32:10;;;;;;;4.83;4.53;;;;;;;;;;5015679;28;20443;-61
2023/07/10 14:34:36;;;;;;;4.17;3.87;;;;;;;;;;5015842;28;20437;-61
2023/07/10 14:37:02;;;;;;;4.60;4.30;;;;;;;;;;5015360;28;20518;-61
2023/07/10 14:39:29;;;;;;;4.60;4.40;;;;;;;;;;5015854;28;20240;-61
2023/07/10 14:41:57;;;;;;;4.67;4.37;;;;;;;;;;5015348;28;20487;-61
2023/07/10 14:44:23;;;;;;;4.60;4.40;;;;;;;;;;5015445;28;20411;-61
2023/07/10 14:46:51;;;;;;;4.33;4.13;;;;;;;;;;5015555;28;20417;-61